Time;durP1;ratioP1;P1;durP2;ratioP2;P2;SDS_P1;SDS_P2;PMS_P1;PMS_P2;Temp;Humidity;BMP_temperature;BMP_pressure;BME280_temperature;BME280_humidity;BME280_pressure;Samples;Min_cycle;Max_cycle;Signal;HPM_P1;HPM_P2
2021/12/27 00:00:55;;;;;;;;;;;8.80;99.90;;;;;;4995401;28;19940;-80
2021/12/27 00:03:23;;;;;;;;;;;8.90;99.90;;;;;;5010285;28;19925;-81
2021/12/27 00:05:51;;;;;;;;;;;8.90;99.90;;;;;;4995176;28;19932;-80
2021/12/27 00:08:19;;;;;;;;;;;8.90;99.90;;;;;;5011482;28;20517;-82
2021/12/27 00:10:47;;;;;;;;;;;8.90;99.90;;;;;;5012348;28;20109;-81
2021/12/27 00:13:15;;;;;;;;;;;8.90;99.90;;;;;;4998003;28;19933;-80
2021/12/27 00:15:44;;;;;;;;;;;8.90;99.90;;;;;;5015630;28;19932;-82
2021/12/27 00:18:12;;;;;;;;;;;9.00;99.90;;;;;;5016143;28;19944;-80
2021/12/27 00:20:40;;;;;;;;;;;9.00;99.90;;;;;;5015904;28;19930;-83
2021/12/27 00:23:07;;;;;;;;;;;9.10;99.90;;;;;;4997807;28;19925;-81
2021/12/27 00:25:35;;;;;;;;;;;9.00;99.90;;;;;;5017400;28;19925;-82
2021/12/27 00:28:04;;;;;;;;;;;9.10;99.90;;;;;;5018991;28;20300;-82
2021/12/27 00:30:32;;;;;;;;;;;9.10;99.90;;;;;;5002873;28;19929;-85
2021/12/27 00:33:00;;;;;;;;;;;9.00;99.90;;;;;;5004699;28;19929;-81
2021/12/27 00:35:32;;;;;;;;;;;9.10;99.90;;;;;;5017334;28;19942;-80
2021/12/27 00:37:59;;;;;;;;;;;9.00;99.90;;;;;;5017702;28;19948;-82
2021/12/27 00:40:27;;;;;;;;;;;9.10;99.90;;;;;;5036379;28;19925;-81
2021/12/27 00:42:55;;;;;;;;;;;9.10;99.90;;;;;;5019530;28;19926;-80
2021/12/27 00:45:23;;;;;;;;;;;9.10;99.90;;;;;;5009479;28;19934;-81
2021/12/27 00:47:51;;;;;;;;;;;9.10;99.90;;;;;;4988969;28;19937;-83
2021/12/27 00:50:19;;;;;;;;;;;9.10;99.90;;;;;;5001829;28;19933;-80
2021/12/27 00:52:48;;;;;;;;;;;9.10;99.90;;;;;;5022282;28;19945;-84
2021/12/27 00:55:16;;;;;;;;;;;9.20;99.90;;;;;;5022871;28;19940;-80
2021/12/27 00:57:46;;;;;;;;;;;9.20;99.90;;;;;;4987508;28;19936;-82
2021/12/27 01:00:19;;;;;;;;;;;9.20;99.90;;;;;;5004366;28;19936;-82
2021/12/27 01:02:47;;;;;;;;;;;9.10;99.90;;;;;;5005089;28;19940;-81
2021/12/27 01:05:16;;;;;;;;;;;9.10;99.90;;;;;;5006986;28;19930;-81
2021/12/27 01:07:44;;;;;;;;;;;9.10;99.90;;;;;;5018739;28;19932;-79
2021/12/27 01:15:48;;;;;;;;;;;9.10;99.90;;;;;;5020452;28;19925;-81
2021/12/27 01:18:19;;;;;;;;;;;9.00;99.90;;;;;;5004716;28;19936;-79
2021/12/27 01:20:57;;;;;;;;;;;7.80;99.90;;;;;;4986802;28;19926;-82
2021/12/27 01:23:24;;;;;;;;;;;9.20;99.90;;;;;;4986376;28;19933;-81
2021/12/27 01:25:52;;;;;;;;;;;9.00;99.90;;;;;;5005081;28;19933;-80
2021/12/27 01:28:21;;;;;;;;;;;9.00;99.90;;;;;;5022032;28;19925;-80
2021/12/27 01:30:49;;;;;;;;;;;9.00;99.90;;;;;;5017881;28;19930;-83
2021/12/27 01:33:19;;;;;;;;;;;9.00;99.90;;;;;;4985488;28;19929;-79
2021/12/27 01:35:47;;;;;;;;;;;8.90;99.90;;;;;;5017146;28;19936;-80
2021/12/27 01:38:16;;;;;;;;;;;8.90;99.90;;;;;;5002374;28;19930;-80
2021/12/27 01:40:45;;;;;;;;;;;8.90;99.90;;;;;;5013899;28;19929;-80
2021/12/27 01:43:20;;;;;;;;;;;8.90;99.90;;;;;;5013994;28;19929;-83
2021/12/27 01:45:56;;;;;;;;;;;8.90;99.90;;;;;;5029062;28;19936;-79
2021/12/27 01:48:54;;;;;;;;;;;8.90;99.90;;;;;;5020728;28;19925;-80
2021/12/27 01:51:25;;;;;;;;;;;8.80;99.90;;;;;;5022115;28;19936;-79
2021/12/27 01:53:53;;;;;;;;;;;8.90;99.90;;;;;;5002114;28;19926;-80
2021/12/27 01:56:22;;;;;;;;;;;8.90;99.90;;;;;;5011724;28;19930;-80
2021/12/27 01:58:51;;;;;;;;;;;8.90;99.90;;;;;;5002588;28;19934;-80
2021/12/27 02:01:20;;;;;;;;;;;8.90;99.90;;;;;;5001713;28;19926;-80
2021/12/27 02:03:49;;;;;;;;;;;9.00;99.90;;;;;;5014832;28;19926;-81
2021/12/27 02:06:17;;;;;;;;;;;9.00;99.90;;;;;;4990511;28;19926;-80
2021/12/27 02:08:45;;;;;;;;;;;8.90;99.90;;;;;;4984507;28;19926;-80
2021/12/27 02:11:14;;;;;;;;;;;8.90;99.90;;;;;;4985108;28;19937;-80
2021/12/27 02:13:44;;;;;;;;;;;8.90;99.90;;;;;;4992100;28;19941;-81
2021/12/27 02:16:14;;;;;;;;;;;8.90;99.90;;;;;;5005071;28;19926;-81
2021/12/27 02:18:44;;;;;;;;;;;8.90;99.90;;;;;;5022018;28;19935;-82
2021/12/27 02:21:12;;;;;;;;;;;8.90;99.90;;;;;;5022471;28;19940;-80
2021/12/27 02:23:41;;;;;;;;;;;8.90;99.90;;;;;;5020014;28;19926;-82
2021/12/27 02:26:09;;;;;;;;;;;8.90;99.90;;;;;;5006486;28;20405;-83
2021/12/27 02:28:37;;;;;;;;;;;9.00;99.90;;;;;;5017099;28;19934;-82
2021/12/27 02:31:05;;;;;;;;;;;8.90;99.90;;;;;;5001975;28;20175;-82
2021/12/27 02:33:35;;;;;;;;;;;8.90;99.90;;;;;;5020761;28;20188;-81
2021/12/27 02:36:03;;;;;;;;;;;8.90;99.90;;;;;;4981797;28;19932;-83
2021/12/27 02:38:31;;;;;;;;;;;8.90;99.90;;;;;;4997578;28;19930;-81
2021/12/27 02:41:00;;;;;;;;;;;9.00;99.90;;;;;;4981356;28;19930;-81
2021/12/27 02:43:29;;;;;;;;;;;9.00;99.90;;;;;;4993652;28;19926;-82
2021/12/27 02:46:02;;;;;;;;;;;9.00;99.90;;;;;;5001332;28;19932;-84
2021/12/27 02:48:32;;;;;;;;;;;8.90;99.90;;;;;;5020321;28;19925;-81
2021/12/27 02:50:59;;;;;;;;;;;8.90;99.90;;;;;;5020633;28;19937;-80
2021/12/27 02:53:31;;;;;;;;;;;8.90;99.90;;;;;;5003908;28;19933;-81
2021/12/27 02:55:59;;;;;;;;;;;8.90;99.90;;;;;;5016996;28;19948;-82
2021/12/27 02:58:27;;;;;;;;;;;8.90;99.90;;;;;;5003468;28;19926;-81
2021/12/27 03:01:01;;;;;;;;;;;8.70;99.90;;;;;;5003611;28;19926;-81
2021/12/27 03:03:28;;;;;;;;;;;8.90;99.90;;;;;;5004160;28;19930;-80
2021/12/27 03:05:56;;;;;;;;;;;8.90;99.90;;;;;;5001403;28;19940;-80
2021/12/27 03:08:26;;;;;;;;;;;9.00;99.90;;;;;;4988291;28;19930;-80
2021/12/27 03:10:55;;;;;;;;;;;9.00;99.90;;;;;;5005191;28;19933;-82
2021/12/27 03:13:27;;;;;;;;;;;9.00;99.90;;;;;;5000865;28;19927;-81
2021/12/27 03:16:00;;;;;;;;;;;9.00;99.90;;;;;;4985850;28;19926;-80
2021/12/27 03:18:29;;;;;;;;;;;9.00;99.90;;;;;;4986766;28;20201;-82
2021/12/27 03:20:56;;;;;;;;;;;9.00;99.90;;;;;;5000901;28;19934;-81
2021/12/27 03:23:25;;;;;;;;;;;9.00;99.90;;;;;;4989034;28;19940;-80
2021/12/27 03:25:54;;;;;;;;;;;9.30;99.90;;;;;;5019773;28;19952;-80
2021/12/27 03:28:22;;;;;;;;;;;9.20;99.90;;;;;;5005457;28;19932;-83
2021/12/27 03:30:50;;;;;;;;;;;8.90;99.90;;;;;;5002632;28;19926;-80
2021/12/27 03:33:20;;;;;;;;;;;9.00;99.90;;;;;;5004964;28;19936;-84
2021/12/27 03:36:00;;;;;;;;;;;8.90;99.90;;;;;;4989567;28;19937;-83
2021/12/27 03:38:34;;;;;;;;;;;9.00;99.90;;;;;;5003715;28;19930;-81
2021/12/27 03:41:03;;;;;;;;;;;9.00;99.90;;;;;;4990826;28;19933;-82
2021/12/27 03:43:31;;;;;;;;;;;9.00;99.90;;;;;;4993525;28;20423;-80
2021/12/27 03:45:59;;;;;;;;;;;9.00;99.90;;;;;;5000076;28;19964;-81
2021/12/27 03:48:28;;;;;;;;;;;9.00;99.90;;;;;;5003069;28;19930;-82
2021/12/27 03:50:56;;;;;;;;;;;9.00;99.90;;;;;;4991749;28;19930;-84
2021/12/27 03:53:25;;;;;;;;;;;9.00;99.90;;;;;;5009010;28;20575;-84
2021/12/27 03:55:52;;;;;;;;;;;9.10;99.90;;;;;;4986660;28;19930;-85
2021/12/27 03:59:19;;;;;;;;;;;9.00;99.90;;;;;;4987455;28;19926;-80
2021/12/27 04:01:16;;;;;;;;;;;9.20;99.90;;;;;;5016483;28;19926;-80
2021/12/27 04:03:46;;;;;;;;;;;9.10;99.90;;;;;;5004878;28;20063;-81
2021/12/27 04:06:16;;;;;;;;;;;9.40;99.90;;;;;;5005359;28;19925;-81
2021/12/27 04:08:43;;;;;;;;;;;9.10;99.90;;;;;;5004095;28;19926;-81
2021/12/27 04:11:12;;;;;;;;;;;9.00;99.90;;;;;;5021202;28;19926;-81
2021/12/27 04:13:40;;;;;;;;;;;9.10;99.90;;;;;;5006420;28;19926;-81
2021/12/27 04:16:07;;;;;;;;;;;9.10;99.90;;;;;;5002204;28;20158;-80
2021/12/27 04:18:35;;;;;;;;;;;9.10;99.90;;;;;;4986073;28;19926;-81
2021/12/27 04:21:03;;;;;;;;;;;9.00;99.90;;;;;;4985544;28;20441;-82
2021/12/27 04:23:31;;;;;;;;;;;9.10;99.90;;;;;;4986249;28;20392;-82
2021/12/27 04:25:59;;;;;;;;;;;9.00;99.90;;;;;;4999008;28;19930;-81
2021/12/27 04:28:26;;;;;;;;;;;9.00;99.90;;;;;;5005849;28;19926;-80
2021/12/27 04:30:55;;;;;;;;;;;9.10;99.90;;;;;;4994288;28;19926;-79
2021/12/27 04:33:23;;;;;;;;;;;9.00;99.90;;;;;;4985446;28;19930;-80
2021/12/27 04:35:50;;;;;;;;;;;9.00;99.90;;;;;;4997231;28;19933;-81
2021/12/27 04:38:18;;;;;;;;;;;9.00;99.90;;;;;;4981402;28;19934;-81
2021/12/27 04:40:47;;;;;;;;;;;9.00;99.90;;;;;;4966386;29;19930;-81
2021/12/27 04:43:18;;;;;;;;;;;9.00;99.90;;;;;;4981661;28;19942;-80
2021/12/27 04:45:46;;;;;;;;;;;9.00;99.90;;;;;;4975528;28;19934;-82
2021/12/27 04:48:14;;;;;;;;;;;9.00;99.90;;;;;;4968530;28;19930;-80
2021/12/27 04:50:41;;;;;;;;;;;9.00;99.90;;;;;;5000122;28;19926;-80
2021/12/27 04:53:09;;;;;;;;;;;9.00;99.90;;;;;;4984704;28;19930;-80
2021/12/27 04:55:37;;;;;;;;;;;9.00;99.90;;;;;;4983862;28;20367;-80
2021/12/27 04:58:07;;;;;;;;;;;8.90;99.90;;;;;;4984563;28;19927;-81
2021/12/27 05:00:36;;;;;;;;;;;8.90;99.90;;;;;;4984120;28;19944;-80
2021/12/27 05:03:04;;;;;;;;;;;9.00;99.90;;;;;;4986192;28;19930;-80
2021/12/27 05:05:32;;;;;;;;;;;9.00;99.90;;;;;;4983956;28;20409;-81
2021/12/27 05:08:00;;;;;;;;;;;9.00;99.90;;;;;;4985547;28;19926;-81
2021/12/27 05:10:28;;;;;;;;;;;9.00;99.90;;;;;;4984393;28;19926;-83
2021/12/27 05:12:56;;;;;;;;;;;9.00;99.90;;;;;;4985254;28;19942;-83
2021/12/27 05:15:24;;;;;;;;;;;9.00;99.90;;;;;;4985557;28;19934;-83
2021/12/27 05:17:51;;;;;;;;;;;7.20;99.90;;;;;;5010834;28;19936;-81
2021/12/27 05:20:19;;;;;;;;;;;9.00;99.90;;;;;;5005139;28;19937;-83
2021/12/27 05:22:47;;;;;;;;;;;8.90;99.90;;;;;;5005107;28;19926;-81
2021/12/27 05:25:16;;;;;;;;;;;8.90;99.90;;;;;;4988108;28;19926;-81
2021/12/27 05:27:44;;;;;;;;;;;9.00;99.90;;;;;;4949253;29;19934;-79
2021/12/27 05:30:18;;;;;;;;;;;9.00;99.90;;;;;;4980163;28;19933;-80
2021/12/27 05:32:46;;;;;;;;;;;9.10;99.90;;;;;;5014058;28;19933;-80
2021/12/27 05:35:15;;;;;;;;;;;9.00;99.90;;;;;;5022629;28;19930;-80
2021/12/27 05:37:43;;;;;;;;;;;9.10;99.90;;;;;;5006383;28;19930;-80
2021/12/27 05:40:16;;;;;;;;;;;9.00;99.90;;;;;;5005045;28;19926;-81
2021/12/27 05:42:43;;;;;;;;;;;9.00;99.90;;;;;;4991492;28;20336;-81
2021/12/27 05:45:11;;;;;;;;;;;9.00;99.90;;;;;;5005379;28;19932;-80
2021/12/27 05:47:39;;;;;;;;;;;9.00;99.90;;;;;;5005468;28;19929;-80
2021/12/27 05:50:07;;;;;;;;;;;9.10;99.90;;;;;;5007395;28;19932;-80
2021/12/27 05:52:35;;;;;;;;;;;9.10;99.90;;;;;;4989963;28;19937;-80
2021/12/27 05:55:03;;;;;;;;;;;9.10;99.90;;;;;;5005551;28;20129;-81
2021/12/27 05:57:31;;;;;;;;;;;9.10;99.90;;;;;;5019626;28;20298;-79
2021/12/27 05:59:59;;;;;;;;;;;9.00;99.90;;;;;;5020718;28;19929;-80
2021/12/27 06:02:26;;;;;;;;;;;9.10;99.90;;;;;;5022165;28;19929;-81
2021/12/27 06:04:54;;;;;;;;;;;9.10;99.90;;;;;;5013743;28;19945;-80
2021/12/27 06:07:22;;;;;;;;;;;9.10;99.90;;;;;;5021485;28;19929;-81
2021/12/27 06:09:50;;;;;;;;;;;9.10;99.90;;;;;;5002252;28;19926;-81
2021/12/27 06:12:17;;;;;;;;;;;9.10;99.90;;;;;;5002813;28;19940;-81
2021/12/27 06:14:45;;;;;;;;;;;9.10;99.90;;;;;;4969323;28;19926;-85
2021/12/27 06:17:12;;;;;;;;;;;9.10;99.90;;;;;;4972608;28;19932;-81
2021/12/27 06:19:40;;;;;;;;;;;9.10;99.90;;;;;;5004288;28;19925;-81
2021/12/27 06:22:08;;;;;;;;;;;9.10;99.90;;;;;;5008515;28;19925;-80
2021/12/27 06:24:38;;;;;;;;;;;9.10;99.90;;;;;;5008158;28;20448;-81
2021/12/27 06:27:06;;;;;;;;;;;7.40;99.90;;;;;;5024459;28;20315;-82
2021/12/27 06:29:34;;;;;;;;;;;9.10;99.90;;;;;;5025031;28;19941;-80
2021/12/27 06:32:02;;;;;;;;;;;9.10;99.90;;;;;;5008137;28;19930;-83
2021/12/27 06:34:29;;;;;;;;;;;9.10;99.90;;;;;;5009358;28;19930;-81
2021/12/27 06:36:57;;;;;;;;;;;9.20;99.90;;;;;;4991598;28;20313;-81
2021/12/27 06:39:24;;;;;;;;;;;9.00;99.90;;;;;;5008189;28;19929;-81
2021/12/27 06:41:52;;;;;;;;;;;9.00;99.90;;;;;;5025919;28;19925;-83
2021/12/27 06:44:23;;;;;;;;;;;9.00;99.90;;;;;;5009037;28;19932;-81
2021/12/27 06:46:52;;;;;;;;;;;9.00;99.90;;;;;;4991449;28;19945;-80
2021/12/27 06:49:19;;;;;;;;;;;9.00;99.90;;;;;;5008188;28;20303;-82
2021/12/27 06:51:47;;;;;;;;;;;9.10;99.90;;;;;;5007364;28;19925;-81
2021/12/27 06:54:15;;;;;;;;;;;9.10;99.90;;;;;;5006962;28;20037;-82
2021/12/27 06:56:43;;;;;;;;;;;9.10;99.90;;;;;;5025309;28;19929;-81
2021/12/27 06:59:10;;;;;;;;;;;9.20;99.90;;;;;;4998496;28;19925;-81
2021/12/27 07:01:38;;;;;;;;;;;9.20;99.90;;;;;;5004014;28;19930;-82
2021/12/27 07:04:06;;;;;;;;;;;9.20;99.90;;;;;;5007266;28;19937;-80
2021/12/27 07:06:34;;;;;;;;;;;9.20;99.90;;;;;;5023610;28;19930;-81
2021/12/27 07:09:03;;;;;;;;;;;9.20;99.90;;;;;;5023040;28;20236;-82
2021/12/27 07:11:32;;;;;;;;;;;9.20;99.90;;;;;;5021116;28;20115;-83
2021/12/27 07:14:00;;;;;;;;;;;9.20;99.90;;;;;;4970802;28;19933;-80
2021/12/27 07:16:28;;;;;;;;;;;9.20;99.90;;;;;;4971568;28;19933;-80
2021/12/27 07:18:55;;;;;;;;;;;9.20;99.90;;;;;;5039788;28;19929;-80
2021/12/27 07:21:23;;;;;;;;;;;9.30;99.90;;;;;;5010354;28;19925;-80
2021/12/27 07:23:54;;;;;;;;;;;9.40;99.90;;;;;;5011008;28;19932;-80
2021/12/27 07:26:24;;;;;;;;;;;9.30;99.90;;;;;;5007550;28;19940;-80
2021/12/27 07:28:52;;;;;;;;;;;9.30;99.90;;;;;;5024897;28;20426;-79
2021/12/27 07:31:20;;;;;;;;;;;9.20;99.90;;;;;;5022110;28;20311;-80
2021/12/27 07:33:49;;;;;;;;;;;9.30;99.90;;;;;;5023592;28;20304;-83
2021/12/27 07:36:17;;;;;;;;;;;9.30;99.90;;;;;;5023365;28;19930;-81
2021/12/27 07:38:44;;;;;;;;;;;9.80;99.90;;;;;;5023983;28;19936;-81
2021/12/27 07:41:12;;;;;;;;;;;9.40;99.90;;;;;;4991020;28;19929;-81
2021/12/27 07:43:39;;;;;;;;;;;9.30;99.90;;;;;;5007145;28;19925;-81
2021/12/27 07:46:07;;;;;;;;;;;9.30;99.90;;;;;;5002435;28;19937;-80
2021/12/27 07:48:35;;;;;;;;;;;9.20;99.90;;;;;;5006494;28;19952;-82
2021/12/27 07:51:03;;;;;;;;;;;9.40;99.90;;;;;;5026434;28;19932;-81
2021/12/27 07:53:31;;;;;;;;;;;7.50;99.90;;;;;;5027384;28;19925;-81
2021/12/27 07:55:58;;;;;;;;;;;9.40;99.90;;;;;;5025975;28;19937;-81
2021/12/27 07:58:26;;;;;;;;;;;8.10;99.90;;;;;;4989235;28;19926;-82
2021/12/27 08:00:54;;;;;;;;;;;9.40;99.90;;;;;;5024253;28;19929;-81
2021/12/27 08:03:23;;;;;;;;;;;9.40;99.90;;;;;;5024098;28;19931;-82
2021/12/27 08:05:50;;;;;;;;;;;9.40;99.90;;;;;;5016924;28;19932;-81
2021/12/27 08:08:18;;;;;;;;;;;9.40;99.90;;;;;;5007436;28;19929;-83
2021/12/27 08:10:47;;;;;;;;;;;9.40;99.90;;;;;;5006964;28;19926;-82
2021/12/27 08:13:16;;;;;;;;;;;9.50;99.90;;;;;;5025606;28;19940;-80
2021/12/27 08:15:44;;;;;;;;;;;9.50;99.90;;;;;;5009975;28;19930;-79
2021/12/27 08:18:12;;;;;;;;;;;9.50;99.90;;;;;;4999166;28;19929;-81
2021/12/27 08:20:42;;;;;;;;;;;9.50;99.90;;;;;;5004703;28;19926;-80
2021/12/27 08:23:11;;;;;;;;;;;9.50;99.90;;;;;;5012357;28;19925;-80
2021/12/27 08:25:39;;;;;;;;;;;9.50;99.90;;;;;;5023158;28;19926;-81
2021/12/27 08:28:06;;;;;;;;;;;9.50;99.90;;;;;;5003577;28;20368;-79
2021/12/27 08:30:38;;;;;;;;;;;9.60;99.90;;;;;;5007760;28;19944;-79
2021/12/27 08:33:07;;;;;;;;;;;9.50;99.90;;;;;;5021146;28;20427;-80
2021/12/27 08:35:36;;;;;;;;;;;9.80;99.90;;;;;;5022553;28;19929;-82
2021/12/27 08:38:04;;;;;;;;;;;9.60;99.90;;;;;;5001855;28;19941;-82
2021/12/27 08:40:32;;;;;;;;;;;9.60;99.90;;;;;;4985351;28;19937;-80
2021/12/27 08:42:59;;;;;;;;;;;9.60;99.90;;;;;;4984921;28;19936;-82
2021/12/27 08:45:27;;;;;;;;;;;9.60;99.90;;;;;;4986176;28;20311;-80
2021/12/27 08:47:57;;;;;;;;;;;9.60;99.90;;;;;;4999938;28;19948;-81
2021/12/27 08:50:24;;;;;;;;;;;9.60;99.90;;;;;;5005848;28;19929;-81
2021/12/27 08:52:52;;;;;;;;;;;9.70;99.90;;;;;;5002993;28;19925;-80
2021/12/27 08:55:24;;;;;;;;;;;10.40;99.90;;;;;;5022378;28;19929;-82
2021/12/27 08:57:52;;;;;;;;;;;9.70;99.90;;;;;;5037102;28;20326;-80
2021/12/27 09:00:19;;;;;;;;;;;9.70;99.90;;;;;;4993705;28;19930;-84
2021/12/27 09:02:47;;;;;;;;;;;9.70;99.90;;;;;;4987866;28;19930;-83
2021/12/27 09:05:15;;;;;;;;;;;10.90;99.90;;;;;;5018876;28;19930;-83
2021/12/27 09:07:42;;;;;;;;;;;9.80;99.90;;;;;;4984005;28;19945;-83
2021/12/27 09:10:10;;;;;;;;;;;9.80;99.90;;;;;;5004215;28;19925;-81
2021/12/27 09:12:39;;;;;;;;;;;9.80;99.90;;;;;;5004015;28;20249;-82
2021/12/27 09:15:17;;;;;;;;;;;9.80;99.90;;;;;;5006275;28;19929;-79
2021/12/27 09:18:13;;;;;;;;;;;9.80;99.90;;;;;;5012417;28;19929;-79
2021/12/27 09:20:41;;;;;;;;;;;9.90;99.90;;;;;;4987733;28;19952;-78
2021/12/27 09:23:09;;;;;;;;;;;9.90;99.90;;;;;;5003998;28;19932;-79
2021/12/27 09:25:37;;;;;;;;;;;9.90;99.90;;;;;;5005925;28;19921;-80
2021/12/27 09:28:06;;;;;;;;;;;10.10;99.90;;;;;;5006378;28;19925;-80
2021/12/27 09:30:36;;;;;;;;;;;9.90;99.90;;;;;;5002036;28;19937;-81
2021/12/27 09:33:05;;;;;;;;;;;9.30;99.90;;;;;;5015625;28;19945;-81
2021/12/27 09:35:34;;;;;;;;;;;9.90;99.90;;;;;;5021199;28;19925;-80
2021/12/27 09:38:04;;;;;;;;;;;10.20;99.90;;;;;;4992158;28;19938;-80
2021/12/27 09:40:32;;;;;;;;;;;9.90;99.90;;;;;;5016652;28;19926;-79
2021/12/27 09:43:01;;;;;;;;;;;10.00;99.90;;;;;;4989319;28;19926;-79
2021/12/27 09:45:31;;;;;;;;;;;9.90;99.90;;;;;;5004476;28;19929;-80
2021/12/27 09:48:05;;;;;;;;;;;10.00;99.90;;;;;;5001284;28;19935;-79
2021/12/27 09:50:40;;;;;;;;;;;10.40;99.90;;;;;;5022299;28;19925;-79
2021/12/27 09:53:10;;;;;;;;;;;9.90;99.90;;;;;;5021287;28;19940;-78
2021/12/27 09:55:52;;;;;;;;;;;10.00;99.90;;;;;;4996966;28;19921;-78
2021/12/27 09:58:20;;;;;;;;;;;10.00;99.90;;;;;;5027276;28;19930;-79
2021/12/27 10:00:49;;;;;;;;;;;10.00;99.90;;;;;;5024576;28;19925;-78
2021/12/27 10:03:23;;;;;;;;;;;10.10;99.90;;;;;;5026135;28;19930;-81
2021/12/27 10:05:52;;;;;;;;;;;10.10;99.90;;;;;;5008207;28;19940;-78
2021/12/27 10:08:21;;;;;;;;;;;10.20;99.90;;;;;;5007917;28;19940;-79
2021/12/27 10:10:57;;;;;;;;;;;10.10;99.90;;;;;;5026582;28;19932;-79
2021/12/27 10:13:25;;;;;;;;;;;10.30;99.90;;;;;;5028718;28;19932;-79
2021/12/27 10:15:55;;;;;;;;;;;10.10;99.90;;;;;;5027684;28;19925;-78
2021/12/27 10:18:26;;;;;;;;;;;10.20;99.90;;;;;;4989813;28;19925;-80
2021/12/27 10:20:59;;;;;;;;;;;10.10;99.90;;;;;;5008188;28;19933;-82
2021/12/27 10:23:32;;;;;;;;;;;10.30;99.90;;;;;;4996058;28;19921;-78
2021/12/27 10:26:01;;;;;;;;;;;10.40;99.90;;;;;;4984984;28;19913;-87
2021/12/27 10:28:36;;;;;;;;;;;10.20;99.90;;;;;;5032889;28;19930;-82
2021/12/27 10:31:05;;;;;;;;;;;10.50;99.90;;;;;;5027907;28;19920;-86
2021/12/27 10:33:37;;;;;;;;;;;10.20;99.90;;;;;;4983246;28;19934;-85
2021/12/27 10:36:06;;;;;;;;;;;10.40;99.90;;;;;;5018776;28;19929;-86
2021/12/27 10:38:36;;;;;;;;;;;10.30;99.90;;;;;;5001676;28;19933;-84
2021/12/27 10:41:11;;;;;;;;;;;10.60;99.90;;;;;;5011427;28;19925;-79
2021/12/27 10:43:40;;;;;;;;;;;10.30;99.90;;;;;;4998067;28;19930;-83
2021/12/27 10:46:13;;;;;;;;;;;10.70;99.90;;;;;;5015479;28;19933;-81
2021/12/27 10:48:43;;;;;;;;;;;10.40;99.90;;;;;;4997453;28;19934;-81
2021/12/27 10:51:18;;;;;;;;;;;10.30;99.90;;;;;;5013058;28;19940;-84
2021/12/27 10:53:50;;;;;;;;;;;10.40;99.90;;;;;;5012163;28;19936;-84
2021/12/27 10:56:21;;;;;;;;;;;10.40;99.90;;;;;;5013578;28;19930;-82
2021/12/27 10:58:53;;;;;;;;;;;10.40;99.90;;;;;;4998663;28;19930;-81
2021/12/27 11:01:26;;;;;;;;;;;10.50;99.90;;;;;;5013440;28;19925;-80
2021/12/27 11:04:01;;;;;;;;;;;10.50;99.90;;;;;;5029534;28;19926;-79
2021/12/27 11:06:31;;;;;;;;;;;10.70;99.90;;;;;;5010946;28;19946;-80
2021/12/27 11:09:17;;;;;;;;;;;9.60;99.90;;;;;;5013825;28;19933;-81
2021/12/27 11:11:46;;;;;;;;;;;10.60;99.90;;;;;;5016837;28;19933;-79
2021/12/27 11:14:27;;;;;;;;;;;10.90;99.90;;;;;;5012915;28;19933;-80
2021/12/27 11:17:06;;;;;;;;;;;10.60;99.90;;;;;;5013392;28;19933;-79
2021/12/27 11:19:36;;;;;;;;;;;10.60;99.90;;;;;;5008280;28;19933;-80
2021/12/27 11:22:05;;;;;;;;;;;9.40;99.90;;;;;;5008134;28;19933;-81
2021/12/27 11:24:43;;;;;;;;;;;10.80;99.90;;;;;;5009043;28;19926;-79
2021/12/27 11:27:23;;;;;;;;;;;9.70;99.90;;;;;;5015509;28;19944;-82
2021/12/27 11:30:09;;;;;;;;;;;10.70;99.90;;;;;;5007226;28;19940;-79
2021/12/27 11:36:06;;;;;;;;;;;10.70;99.90;;;;;;5012224;28;19925;-80
2021/12/27 11:38:41;;;;;;;;;;;11.30;99.90;;;;;;5011987;28;19944;-81
2021/12/27 11:41:31;;;;;;;;;;;10.90;99.90;;;;;;5001109;28;19945;-79
2021/12/27 11:44:03;;;;;;;;;;;10.70;99.90;;;;;;5012111;28;19929;-80
2021/12/27 11:46:49;;;;;;;;;;;10.90;99.90;;;;;;5001052;28;19926;-81
2021/12/27 11:49:33;;;;;;;;;;;11.10;99.90;;;;;;4999933;28;19934;-79
2021/12/27 11:52:17;;;;;;;;;;;10.90;99.90;;;;;;4995888;28;19934;-79
2021/12/27 11:54:56;;;;;;;;;;;10.80;99.90;;;;;;4992594;28;19925;-81
2021/12/27 11:57:47;;;;;;;;;;;11.00;99.90;;;;;;5002635;28;19935;-80
2021/12/27 12:00:20;;;;;;;;;;;10.80;99.90;;;;;;5019085;28;19936;-81
2021/12/27 12:02:56;;;;;;;;;;;10.70;99.90;;;;;;5012015;28;19939;-80
2021/12/27 12:05:39;;;;;;;;;;;11.50;99.90;;;;;;4985313;28;19936;-80
2021/12/27 12:08:10;;;;;;;;;;;10.90;99.90;;;;;;5015108;28;19930;-79
2021/12/27 12:10:48;;;;;;;;;;;11.00;99.90;;;;;;4984812;28;19930;-80
2021/12/27 12:13:23;;;;;;;;;;;11.00;99.90;;;;;;5030596;28;19926;-80
2021/12/27 12:15:55;;;;;;;;;;;11.00;99.90;;;;;;5010176;28;19930;-81
2021/12/27 12:18:23;;;;;;;;;;;11.00;99.90;;;;;;5013137;28;19933;-81
2021/12/27 12:20:52;;;;;;;;;;;11.00;99.90;;;;;;5013243;28;19940;-81
2021/12/27 12:23:52;;;;;;;;;;;11.00;99.90;;;;;;5014513;28;19936;-81
2021/12/27 12:26:21;;;;;;;;;;;11.10;99.90;;;;;;5012303;28;19940;-81
2021/12/27 12:29:06;;;;;;;;;;;11.10;99.90;;;;;;4997059;28;19929;-82
2021/12/27 12:31:37;;;;;;;;;;;11.10;99.90;;;;;;5011682;28;19933;-82
2021/12/27 12:34:09;;;;;;;;;;;11.10;99.90;;;;;;4997278;28;19936;-80
2021/12/27 12:36:47;;;;;;;;;;;11.10;99.90;;;;;;5022841;28;19925;-80
2021/12/27 12:39:15;;;;;;;;;;;11.10;99.90;;;;;;5010305;28;19929;-82
2021/12/27 12:42:06;;;;;;;;;;;11.20;99.90;;;;;;5010295;28;19949;-83
2021/12/27 12:44:49;;;;;;;;;;;11.40;99.90;;;;;;5015541;28;19929;-85
2021/12/27 12:47:34;;;;;;;;;;;11.40;99.90;;;;;;5012352;28;19929;-82
2021/12/27 12:50:12;;;;;;;;;;;11.50;99.90;;;;;;4996565;28;19925;-84
2021/12/27 12:53:06;;;;;;;;;;;11.40;99.90;;;;;;5028562;28;19934;-83
2021/12/27 12:55:47;;;;;;;;;;;11.20;99.90;;;;;;5008966;28;19925;-83
2021/12/27 12:58:39;;;;;;;;;;;11.10;99.90;;;;;;5008130;28;19929;-83
2021/12/27 13:01:12;;;;;;;;;;;10.80;99.90;;;;;;4996044;28;19933;-80
2021/12/27 13:03:48;;;;;;;;;;;9.50;99.90;;;;;;4987200;28;20643;-85
2021/12/27 13:06:29;;;;;;;;;;;11.30;99.90;;;;;;5008748;28;19940;-85
2021/12/27 13:09:04;;;;;;;;;;;11.40;99.90;;;;;;4992412;28;19926;-84
2021/12/27 13:11:38;;;;;;;;;;;11.90;99.90;;;;;;5008703;28;19937;-82
2021/12/27 13:14:28;;;;;;;;;;;11.70;99.90;;;;;;5008747;28;19939;-84
2021/12/27 13:17:37;;;;;;;;;;;11.80;99.90;;;;;;4999938;28;20323;-80
2021/12/27 13:20:08;;;;;;;;;;;12.90;99.90;;;;;;5009396;28;19925;-83
2021/12/27 13:23:06;;;;;;;;;;;11.50;99.90;;;;;;4991812;28;19936;-83
2021/12/27 13:25:47;;;;;;;;;;;11.50;99.90;;;;;;5007841;28;19930;-84
2021/12/27 13:28:23;;;;;;;;;;;11.90;99.90;;;;;;5014774;28;19934;-85
2021/12/27 13:31:09;;;;;;;;;;;11.90;99.90;;;;;;5030412;28;20115;-82
2021/12/27 13:33:48;;;;;;;;;;;11.80;99.90;;;;;;5031986;28;19933;-82
2021/12/27 13:36:19;;;;;;;;;;;11.80;99.90;;;;;;5003657;28;19933;-84
2021/12/27 13:39:13;;;;;;;;;;;11.90;99.90;;;;;;5028093;28;19940;-84
2021/12/27 13:41:50;;;;;;;;;;;11.90;99.90;;;;;;5020978;28;19933;-85
2021/12/27 13:44:26;;;;;;;;;;;12.50;99.90;;;;;;5012420;28;19925;-85
2021/12/27 13:47:00;;;;;;;;;;;12.10;99.90;;;;;;5015027;28;19940;-82
2021/12/27 13:49:41;;;;;;;;;;;13.60;99.90;;;;;;5030798;28;19933;-85
2021/12/27 13:52:18;;;;;;;;;;;11.80;99.90;;;;;;5021954;28;20440;-81
2021/12/27 13:54:54;;;;;;;;;;;12.40;99.90;;;;;;5019846;28;19925;-85
2021/12/27 13:57:31;;;;;;;;;;;11.80;99.90;;;;;;5038675;28;20032;-83
2021/12/27 14:00:06;;;;;;;;;;;12.00;99.90;;;;;;5022235;28;19931;-84
2021/12/27 14:02:49;;;;;;;;;;;11.80;99.90;;;;;;5022821;28;19925;-82
2021/12/27 14:05:28;;;;;;;;;;;11.90;99.90;;;;;;5021114;28;19925;-86
2021/12/27 14:08:13;;;;;;;;;;;11.70;99.90;;;;;;5017734;28;19934;-84
2021/12/27 14:11:02;;;;;;;;;;;11.80;99.90;;;;;;5018573;28;19933;-83
2021/12/27 14:13:53;;;;;;;;;;;11.80;99.90;;;;;;5015830;28;19933;-84
2021/12/27 14:16:45;;;;;;;;;;;11.70;99.90;;;;;;5027282;28;19945;-83
2021/12/27 14:19:25;;;;;;;;;;;11.60;99.90;;;;;;5026874;28;19929;-84
2021/12/27 14:22:12;;;;;;;;;;;11.70;99.90;;;;;;5034280;28;19925;-82
2021/12/27 14:24:56;;;;;;;;;;;12.00;99.90;;;;;;5031935;28;20444;-86
2021/12/27 14:27:31;;;;;;;;;;;11.70;99.90;;;;;;5019125;28;19944;-84
2021/12/27 14:30:33;;;;;;;;;;;11.70;99.90;;;;;;5002356;28;19952;-84
2021/12/27 14:33:10;;;;;;;;;;;11.60;99.90;;;;;;5025633;28;19925;-86
2021/12/27 14:35:51;;;;;;;;;;;11.80;99.90;;;;;;5001407;28;19925;-81
2021/12/27 14:38:32;;;;;;;;;;;12.00;99.90;;;;;;5001381;28;19933;-83
2021/12/27 14:41:09;;;;;;;;;;;11.50;99.90;;;;;;5015372;28;19932;-84
2021/12/27 14:43:41;;;;;;;;;;;11.70;99.90;;;;;;5033853;28;19932;-81
2021/12/27 14:46:15;;;;;;;;;;;11.60;99.90;;;;;;5022256;28;19936;-80
2021/12/27 14:48:45;;;;;;;;;;;11.60;99.90;;;;;;4994465;28;19929;-81
2021/12/27 14:51:21;;;;;;;;;;;11.10;99.90;;;;;;5036561;28;19933;-80
2021/12/27 14:53:55;;;;;;;;;;;12.00;99.90;;;;;;5025113;28;19925;-79
2021/12/27 14:56:28;;;;;;;;;;;11.80;99.90;;;;;;5036657;28;19932;-82
2021/12/27 14:59:03;;;;;;;;;;;11.50;99.90;;;;;;5036275;28;19934;-80
2021/12/27 15:01:38;;;;;;;;;;;9.90;99.90;;;;;;5036478;28;19949;-79